Aérodrome :
LOGIN :

S'inscrire | Disclaimer

   EN    FR    IT 

 










Légende :    VFR   VFR Marginal   IFR   IFR Intensif   IFR Très Intensif
Visi : 
Plafond : 
>= 8 km
>= 3000ft
5 à 8 km
1000 à 3000 ft
1500m à 5 km
500 à 1000 ft
800 à 1500m
200 à 500 ft
< 800m
< 200 ft
Symboles :   Orages  Brouillard  Fortes neiges  Fortes précipitations  Vent > 20 kt
SIGMETs :   Divers  Orages  Givrage  Turbulence  Onde Orograph.  Cendres Volcan.






- Altitude de l'aérodrome : 3381 ft
- Code IATA : KYA


LTAN - Konya AB

DERNIER METAR :
  • 040750Z 20005KT 110V280 9999 BKN040 19/07 Q1015 NOSIG

METARs EXPIRÉS :
  • 040650Z 15006KT 090V200 9999 SCT043 17/08 Q1015 NOSIG
  • 040550Z 17003KT 090V210 9999 SCT040 15/07 Q1015 NOSIG

TAF TAF LTAN
Valide du 04 à 09h jusqu'au 04 à 18h UTC


040740Z 0409/0418 32007KT 9999 SCT040
TEMPO 0409/0412 FEW025CB BKN035
TEMPO 0415/0418 -SHRA BKN035



MET'MAP, la Météo Aéronautique d'un coup d'oeil ! - Copyright ORBIFLY Décembre 2007 - Disclaimer

ORBIFLY MET'MAP TEAM :

Programmation & Développement : Alexandra Zaïnal
Sur une idée originale de : Baudouin d'Aumeries
Assistance à la programmation : Marc-Olivier Méhu
Soutien technique & logistique : Manuel Goepfert

Contact : metmap@orbifly.com




SOURCES & CREDITS :

   NOAA